Terminal Aerodrome Forecast
Issued by NWS

Home | Current Version | Previous Version | Text Only | Print | Product List | Glossary On
Versions: 1 2 3 4 5 6 7 8 9 10 11 12 13 14 15 16 17 18
000
FTUS43 KAPX 240524
TAFTVC
TAF
KTVC 240524Z 2406/2506 31006KT P6SM OVC035
     FM241000 VRB03KT P6SM BKN025
     FM241400 VRB03KT P6SM SCT025
     FM241500 11004KT P6SM SCT250
     FM242200 10008KT P6SM SCT120
     FM250000 10008KT P6SM BKN100 WS020/11030KT
     FM250100 10010KT P6SM BKN090 WS020/11030KT
     FM250300 11013KT P6SM OVC070 WS020/11035KT
     FM250500 12015G22KT P6SM OVC060 WS020/13045KT=

USA.gov is the U.S. government's official web portal to all federal, state and local government web resources and services.